createdAt,value
2022-09-09T07:11:12.067Z,62747.53
2022-09-09T07:13:39.527Z,62747.53
2022-09-09T07:17:01.842Z,62747.53
2022-09-09T07:19:35.354Z,62747.53
2022-09-09T13:04:55.283Z,100898.75
2022-09-09T13:07:22.817Z,100887.19
2022-09-09T13:09:50.857Z,100885.22
2022-09-09T13:12:26.442Z,100883.53
2022-09-09T13:14:57.416Z,100878.28
2022-09-09T13:17:32.085Z,100881.69
2022-09-09T13:19:59.145Z,100881.84
2022-09-09T13:22:41.735Z,100874.78
2022-09-09T13:25:12.552Z,100875.66
2022-09-09T13:28:05.667Z,100867.84
2022-09-09T13:30:37.307Z,100860.84
2022-09-09T13:33:10.186Z,100860.56
2022-09-09T13:36:00.380Z,100865.19
2022-09-09T13:38:31.940Z,100856.94
2022-09-09T13:41:11.577Z,100864.28
2022-09-09T13:43:43.146Z,100859.91
2022-09-09T13:46:35.224Z,100863.03
2022-09-09T13:49:09.926Z,100872.09
2022-09-09T13:51:53.332Z,100868.00
2022-09-09T13:54:22.099Z,100865.28
2022-09-09T13:56:50.764Z,100862.28
2022-09-09T13:59:30.658Z,100857.94
2022-09-09T14:02:05.186Z,100857.00
2022-09-09T14:04:36.194Z,100859.00
2022-09-09T14:07:04.146Z,100849.50
2022-09-09T14:09:31.296Z,100858.63
2022-09-09T14:11:58.714Z,100855.16
2022-09-09T14:14:26.779Z,100861.38
2022-09-09T14:16:56.715Z,100854.81
2022-09-09T14:19:24.027Z,100858.13
2022-09-09T14:21:51.569Z,100854.09
2022-09-09T14:24:18.729Z,100860.72
2022-09-09T14:26:48.994Z,100852.63
2022-09-09T14:29:16.127Z,100857.56
2022-09-09T14:31:43.283Z,100869.69
2022-09-09T14:34:11.999Z,100860.28
2022-09-09T14:36:39.432Z,100863.00
2022-09-09T14:39:06.610Z,100871.97
2022-09-09T14:41:33.566Z,100867.31
2022-09-09T14:44:02.808Z,100867.75
2022-09-09T14:46:29.887Z,100866.25
2022-09-09T14:48:57.303Z,100861.06
2022-09-09T14:51:26.437Z,100865.13
2022-09-09T14:53:55.915Z,100858.13
2022-09-09T14:56:27.323Z,100866.91
2022-09-09T14:58:56.512Z,100858.16
2022-09-09T15:01:25.450Z,100864.72
2022-09-09T15:03:59.126Z,100856.09
2022-09-09T15:06:30.224Z,100864.00
2022-09-09T15:09:00.446Z,100855.63
2022-09-09T15:11:31.572Z,100854.31
2022-09-09T15:13:59.609Z,100861.44
2022-09-09T15:16:28.998Z,100858.78
2022-09-09T15:18:58.565Z,100857.09
2022-09-09T15:21:31.095Z,100858.06
2022-09-09T15:23:59.159Z,100864.84
2022-09-09T15:26:27.295Z,100860.38
2022-09-09T15:28:55.780Z,100866.59
2022-09-09T15:31:29.812Z,100866.91
2022-09-09T15:34:03.554Z,100868.69
2022-09-09T15:36:37.924Z,100864.97
2022-09-09T15:39:08.444Z,100855.75
2022-09-09T15:41:37.603Z,100852.69
2022-09-09T15:44:07.220Z,100856.13
2022-09-09T15:46:42.255Z,100860.25
2022-09-09T15:49:19.353Z,100857.41
2022-09-09T15:51:51.838Z,100863.16
2022-09-09T15:54:22.940Z,100859.81
2022-09-09T15:56:56.623Z,100860.59
2022-09-09T15:59:29.104Z,100875.56
2022-09-09T16:01:57.088Z,100864.63
2022-09-09T16:04:28.628Z,100862.56
2022-09-09T16:07:00.104Z,100863.44
2022-09-09T16:09:28.639Z,100869.41
2022-09-09T16:12:02.030Z,100871.81
2022-09-09T16:14:29.950Z,100876.00
2022-09-09T16:17:08.131Z,100867.28
2022-09-09T16:19:35.672Z,100864.97
2022-09-09T16:22:05.213Z,100865.47
2022-09-09T16:24:36.296Z,100866.16
2022-09-09T16:27:03.498Z,100866.72
2022-09-09T16:29:32.912Z,100867.44
2022-09-09T16:32:03.998Z,100865.38
2022-09-09T16:34:31.581Z,100858.00
2022-09-09T16:36:58.681Z,100863.44
2022-09-09T16:39:25.946Z,100861.84
2022-09-09T16:41:55.978Z,100872.22
2022-09-09T16:44:27.246Z,100873.06
2022-09-09T16:47:00.486Z,100873.84
2022-09-09T16:49:29.492Z,100879.16
2022-09-09T16:52:00.236Z,100873.53
2022-09-09T16:54:30.168Z,100878.66
2022-09-09T16:56:58.567Z,100886.41
2022-09-09T16:59:25.792Z,100880.09
2022-09-09T17:01:53.369Z,100890.34
2022-09-09T17:04:27.646Z,100887.59
2022-09-09T17:06:56.965Z,100893.88
2022-09-09T17:09:28.725Z,100891.94
2022-09-09T17:11:55.905Z,100900.38
2022-09-09T17:14:23.728Z,100904.84
2022-09-09T17:16:51.122Z,100911.91
2022-09-09T17:19:18.672Z,100896.81
2022-09-09T17:22:15.607Z,100895.84
2022-09-09T17:24:39.410Z,100891.28
2022-09-09T17:27:07.009Z,100890.28
2022-09-09T17:29:36.912Z,100899.00
2022-09-09T17:32:06.401Z,100904.38
2022-09-09T17:34:34.053Z,100909.28
2022-09-09T17:37:02.596Z,100902.53
2022-09-09T17:39:30.007Z,100911.66
2022-09-09T17:41:57.006Z,100910.34
2022-09-09T17:44:24.397Z,100910.81
2022-09-09T17:46:55.570Z,100919.59
2022-09-09T17:49:22.714Z,100923.63
2022-09-09T17:51:52.707Z,100922.81
2022-09-09T17:54:23.335Z,100930.97
2022-09-09T17:56:51.113Z,100937.19
2022-09-09T17:59:20.633Z,100930.97
2022-09-09T18:01:50.849Z,100931.78
2022-09-09T18:04:19.291Z,100936.09
2022-09-09T18:06:52.663Z,100935.81
2022-09-09T18:09:24.708Z,100947.47
2022-09-09T18:11:56.569Z,100948.81
2022-09-09T18:14:28.956Z,100942.97
2022-09-09T18:17:04.040Z,100952.91
2022-09-09T18:19:33.234Z,100952.03
2022-09-09T18:22:02.639Z,100953.06
2022-09-09T18:24:33.765Z,100951.53
2022-09-09T18:27:04.429Z,100952.09
2022-09-09T18:29:38.550Z,100946.13
2022-09-09T18:32:06.121Z,100960.53
2022-09-09T18:34:33.239Z,100954.09
2022-09-09T18:37:03.352Z,100956.13
2022-09-09T18:39:30.577Z,100951.53
2022-09-09T18:42:02.657Z,100953.09
2022-09-09T18:44:33.826Z,100948.06
2022-09-09T18:47:04.657Z,100952.28
2022-09-09T18:49:33.426Z,100948.03
2022-09-09T18:52:00.644Z,100953.44
2022-09-09T18:54:34.186Z,100959.59
2022-09-09T18:57:01.681Z,100951.84
2022-09-09T18:59:34.274Z,100956.50
2022-09-09T19:02:03.814Z,100954.53
2022-09-09T19:04:41.296Z,100956.16
2022-09-09T19:07:11.316Z,100953.53
2022-09-09T19:09:45.929Z,100952.84
2022-09-09T19:12:16.158Z,100948.00
2022-09-09T19:14:44.111Z,100949.41
2022-09-09T19:17:11.296Z,100954.34
2022-09-09T19:19:38.466Z,100950.78
2022-09-09T19:22:09.106Z,100955.94
2022-09-09T19:24:37.633Z,100955.00
2022-09-09T19:27:06.982Z,100949.06
2022-09-09T19:29:39.637Z,100943.81
2022-09-09T19:34:53.751Z,100951.75
2022-09-09T19:37:21.091Z,100952.88
2022-09-09T19:39:49.598Z,100953.06
2022-09-09T19:42:16.895Z,100958.56
2022-09-09T19:44:44.022Z,100961.88
2022-09-09T19:47:15.343Z,100962.91
2022-09-09T19:49:46.709Z,100968.31
2022-09-09T19:52:14.554Z,100975.97
2022-09-09T19:54:44.163Z,100974.66
2022-09-09T19:57:11.628Z,100974.47
2022-09-09T19:59:38.680Z,100981.34
2022-09-09T20:02:10.673Z,100976.41
2022-09-09T20:04:43.313Z,100986.91
2022-09-09T20:07:10.424Z,100984.41
2022-09-09T20:09:37.646Z,100992.94
2022-09-09T20:12:05.116Z,100978.19
2022-09-09T20:14:39.142Z,100987.25
2022-09-09T20:17:10.352Z,100990.09
2022-09-09T20:19:38.661Z,100986.19
2022-09-09T20:22:05.874Z,100979.91
2022-09-09T20:24:32.918Z,100983.72
2022-09-09T20:26:59.914Z,100991.81
2022-09-09T20:29:26.904Z,100984.28
2022-09-09T20:31:53.951Z,100974.41
2022-09-09T20:34:22.315Z,100985.38
2022-09-09T20:36:53.244Z,100985.63
2022-09-09T20:39:22.158Z,100990.28
2022-09-09T20:41:50.387Z,100996.94
2022-09-09T20:44:21.896Z,100989.44
2022-09-09T20:46:52.762Z,100995.56
2022-09-09T20:49:23.268Z,100999.06
2022-09-09T20:51:52.060Z,101005.31
2022-09-09T20:54:20.166Z,100994.50
2022-09-09T20:56:51.483Z,100990.72
2022-09-09T20:59:25.104Z,100993.97
2022-09-09T21:01:53.320Z,100994.88
2022-09-09T21:04:22.034Z,100992.75
2022-09-09T21:06:51.166Z,100982.16
2022-09-09T21:09:23.266Z,100991.56
2022-09-09T21:11:55.508Z,100990.28
2022-09-09T21:14:27.816Z,100985.44
2022-09-09T21:16:54.775Z,100978.34
2022-09-09T21:19:25.168Z,100986.66
2022-09-09T21:21:52.276Z,100981.28
2022-09-09T21:24:19.268Z,100980.56
2022-09-09T21:26:49.823Z,100983.81
2022-09-09T21:29:16.848Z,100978.41
2022-09-09T21:31:43.949Z,100977.91
2022-09-09T21:34:13.499Z,100980.03
2022-09-09T21:36:41.003Z,100975.63
2022-09-09T21:39:08.019Z,100978.41
2022-09-09T21:41:35.406Z,100985.84
2022-09-09T21:44:04.962Z,100980.81
2022-09-09T21:46:32.491Z,100973.72
2022-09-09T21:49:03.507Z,100971.56
2022-09-09T21:51:30.667Z,100960.78
2022-09-09T21:53:57.765Z,100969.28
2022-09-09T21:56:27.822Z,100957.72
2022-09-09T21:58:59.676Z,100957.50
2022-09-09T22:01:33.240Z,100961.38
2022-09-09T22:04:01.699Z,100958.38
2022-09-09T22:06:28.742Z,100963.78
2022-09-09T22:08:57.286Z,100951.44
2022-09-09T22:11:25.339Z,100958.66
2022-09-09T22:14:03.525Z,100955.16
2022-09-09T22:16:31.761Z,100952.88
2022-09-09T22:19:01.317Z,100957.44
2022-09-09T22:21:33.070Z,100961.06
2022-09-09T22:24:06.189Z,100961.28
2022-09-09T22:26:38.709Z,100960.06
2022-09-09T22:29:06.999Z,100957.03
2022-09-09T22:31:36.225Z,100952.03
2022-09-09T22:34:07.623Z,100956.41
2022-09-09T22:36:34.715Z,100952.59
2022-09-09T22:39:02.012Z,100950.09
2022-09-09T22:41:30.092Z,100946.31
2022-09-09T22:43:58.392Z,100943.97
2022-09-09T22:46:25.433Z,100946.03
2022-09-09T22:48:52.533Z,100940.53
2022-09-09T22:51:19.628Z,100939.81
2022-09-09T22:53:49.188Z,100941.00
2022-09-09T22:56:19.821Z,100947.03
2022-09-09T22:58:48.113Z,100934.03
2022-09-09T23:01:19.899Z,100934.09
2022-09-09T23:03:48.936Z,100929.47
2022-09-09T23:06:24.166Z,100922.00
2022-09-09T23:08:59.476Z,100930.13
2022-09-09T23:11:31.670Z,100930.50
2022-09-09T23:14:01.808Z,100921.78
2022-09-09T23:16:39.719Z,100921.31
2022-09-09T23:19:15.899Z,100927.53
2022-09-09T23:21:46.199Z,100927.03
2022-09-09T23:24:16.750Z,100927.03
2022-09-09T23:26:45.617Z,100932.13
2022-09-09T23:29:14.236Z,100922.84
2022-09-09T23:31:45.049Z,100930.94
2022-09-09T23:34:15.805Z,100933.94
2022-09-09T23:36:43.464Z,100928.91
2022-09-09T23:39:13.312Z,100921.22
2022-09-09T23:41:40.665Z,100931.41
2022-09-09T23:44:09.972Z,100928.78
2022-09-09T23:46:38.800Z,100927.25
2022-09-09T23:49:08.340Z,100924.88
2022-09-09T23:51:37.953Z,100924.88
2022-09-09T23:54:06.200Z,100927.41
2022-09-09T23:56:40.556Z,100924.81
2022-09-09T23:59:08.388Z,100920.00
